Time;durP1;ratioP1;P1;durP2;ratioP2;P2;SDS_P1;SDS_P2;PMS_P1;PMS_P2;Temp;Humidity;BMP_temperature;BMP_pressure;BME280_temperature;BME280_humidity;BME280_pressure;Samples;Min_cycle;Max_cycle;Signal;HPM_P1;HPM_P2
2023/10/31 00:02:08;;;;;;;1.58;0.80;;;;;;;;;;5076956;28;20515;-74
2023/10/31 00:04:34;;;;;;;0.82;0.82;;;;;;;;;;5074221;28;20048;-74
2023/10/31 00:07:00;;;;;;;0.65;0.50;;;;;;;;;;5073368;28;20176;-74
2023/10/31 00:09:26;;;;;;;1.45;0.60;;;;;;;;;;5074317;28;20028;-74
2023/10/31 00:11:52;;;;;;;0.60;0.60;;;;;;;;;;5075365;28;20028;-74
2023/10/31 00:14:18;;;;;;;1.42;0.60;;;;;;;;;;5075234;28;20028;-74
2023/10/31 00:16:45;;;;;;;1.02;0.45;;;;;;;;;;5057257;28;20386;-75
2023/10/31 00:19:11;;;;;;;0.52;0.40;;;;;;;;;;5074663;28;20024;-75
2023/10/31 00:21:37;;;;;;;0.30;0.22;;;;;;;;;;5074426;28;20013;-75
2023/10/31 00:24:03;;;;;;;0.40;0.38;;;;;;;;;;5071665;28;20024;-74
2023/10/31 00:26:29;;;;;;;0.30;0.30;;;;;;;;;;5068479;28;20029;-74
2023/10/31 00:28:55;;;;;;;0.30;0.30;;;;;;;;;;5073632;28;20017;-75
2023/10/31 00:31:21;;;;;;;0.32;0.20;;;;;;;;;;5072835;28;20381;-74
2023/10/31 00:33:48;;;;;;;0.30;0.30;;;;;;;;;;5066640;28;20431;-74
2023/10/31 00:36:14;;;;;;;0.55;0.20;;;;;;;;;;5082690;28;20040;-74
2023/10/31 00:38:40;;;;;;;0.13;0.13;;;;;;;;;;5090148;28;20028;-74
2023/10/31 00:41:06;;;;;;;0.10;0.10;;;;;;;;;;5073308;28;20091;-74
2023/10/31 00:43:32;;;;;;;0.13;0.13;;;;;;;;;;5072204;28;20044;-74
2023/10/31 00:45:58;;;;;;;0.77;0.20;;;;;;;;;;5074818;28;20342;-75
2023/10/31 00:48:24;;;;;;;0.30;0.10;;;;;;;;;;5074095;28;20434;-74
2023/10/31 00:50:50;;;;;;;0.13;0.13;;;;;;;;;;5073859;28;20096;-75
2023/10/31 00:53:17;;;;;;;0.43;0.20;;;;;;;;;;5068994;28;20025;-74
2023/10/31 00:55:44;;;;;;;0.20;0.20;;;;;;;;;;5074259;28;20021;-74
2023/10/31 00:58:10;;;;;;;0.00;0.00;;;;;;;;;;5074134;28;20075;-74
2023/10/31 01:00:37;;;;;;;1.35;0.20;;;;;;;;;;5073339;28;20066;-76
2023/10/31 01:03:03;;;;;;;0.10;0.10;;;;;;;;;;5071176;28;20433;-75
2023/10/31 01:05:29;;;;;;;0.10;0.10;;;;;;;;;;5073126;28;20039;-73
2023/10/31 01:07:56;;;;;;;1.27;0.10;;;;;;;;;;5055139;28;20024;-74
2023/10/31 01:10:22;;;;;;;2.28;0.20;;;;;;;;;;5073116;28;20305;-74
2023/10/31 01:12:48;;;;;;;0.70;0.17;;;;;;;;;;5069755;28;20397;-73
2023/10/31 01:15:14;;;;;;;0.10;0.10;;;;;;;;;;5068274;28;20078;-75
2023/10/31 01:17:40;;;;;;;0.10;0.10;;;;;;;;;;5072611;28;20024;-75
2023/10/31 01:20:07;;;;;;;0.10;0.10;;;;;;;;;;5072976;28;20016;-74
2023/10/31 01:22:33;;;;;;;0.20;0.20;;;;;;;;;;5072795;28;20613;-74
2023/10/31 01:24:59;;;;;;;0.10;0.10;;;;;;;;;;5068427;28;20039;-73
2023/10/31 01:27:25;;;;;;;0.10;0.10;;;;;;;;;;5072799;28;20364;-74
2023/10/31 01:29:51;;;;;;;0.20;0.10;;;;;;;;;;5072972;28;20056;-74
2023/10/31 01:32:18;;;;;;;0.20;0.10;;;;;;;;;;5054567;28;20020;-74
2023/10/31 01:34:47;;;;;;;0.35;0.10;;;;;;;;;;5052956;28;20028;-75
2023/10/31 01:37:14;;;;;;;0.13;0.10;;;;;;;;;;5072500;28;20019;-75
2023/10/31 01:39:40;;;;;;;0.10;0.10;;;;;;;;;;5072680;28;20039;-75
2023/10/31 01:42:06;;;;;;;0.00;0.00;;;;;;;;;;5088888;28;20021;-74
2023/10/31 01:44:32;;;;;;;0.05;0.05;;;;;;;;;;5077554;28;20045;-75
2023/10/31 01:46:58;;;;;;;0.00;0.00;;;;;;;;;;5063847;28;20041;-75
2023/10/31 01:49:25;;;;;;;0.00;0.00;;;;;;;;;;5072043;28;20480;-75
2023/10/31 01:51:51;;;;;;;0.03;0.03;;;;;;;;;;5072251;28;20035;-75
2023/10/31 01:54:18;;;;;;;0.00;0.00;;;;;;;;;;5068442;28;20027;-75
2023/10/31 01:56:44;;;;;;;0.30;0.10;;;;;;;;;;5053272;28;20028;-74
2023/10/31 01:59:10;;;;;;;0.20;0.05;;;;;;;;;;5054194;28;20111;-75
2023/10/31 02:01:40;;;;;;;0.17;0.17;;;;;;;;;;5072266;28;20031;-75
2023/10/31 02:04:06;;;;;;;0.17;0.17;;;;;;;;;;5073463;28;20012;-75
2023/10/31 02:06:32;;;;;;;0.10;0.10;;;;;;;;;;5079718;28;20013;-74
2023/10/31 02:08:58;;;;;;;0.28;0.10;;;;;;;;;;5080507;28;20028;-75
2023/10/31 02:11:24;;;;;;;0.00;0.00;;;;;;;;;;5069593;28;20028;-75
2023/10/31 02:13:51;;;;;;;1.60;0.10;;;;;;;;;;5072073;28;20029;-75
2023/10/31 02:16:17;;;;;;;0.28;0.13;;;;;;;;;;5053946;28;20027;-75
2023/10/31 02:18:43;;;;;;;0.05;0.05;;;;;;;;;;5071662;28;20028;-75
2023/10/31 02:21:09;;;;;;;0.00;0.00;;;;;;;;;;5072323;28;20021;-75
2023/10/31 02:23:35;;;;;;;1.65;0.10;;;;;;;;;;5063801;28;20041;-75
2023/10/31 02:26:02;;;;;;;0.10;0.10;;;;;;;;;;5071970;28;20381;-75
2023/10/31 02:28:28;;;;;;;0.20;0.20;;;;;;;;;;5053775;28;20095;-75
2023/10/31 02:30:54;;;;;;;0.00;0.00;;;;;;;;;;5072013;28;20025;-75
2023/10/31 02:33:21;;;;;;;0.03;0.03;;;;;;;;;;5066904;28;20406;-75
2023/10/31 02:35:47;;;;;;;0.17;0.17;;;;;;;;;;5071774;28;20095;-74
2023/10/31 02:38:13;;;;;;;0.03;0.03;;;;;;;;;;5071484;28;20021;-75
2023/10/31 02:40:39;;;;;;;0.10;0.10;;;;;;;;;;5071482;28;20071;-74
2023/10/31 02:43:05;;;;;;;0.10;0.10;;;;;;;;;;5069480;28;20036;-74
2023/10/31 02:45:31;;;;;;;0.00;0.00;;;;;;;;;;5071614;28;20410;-75
2023/10/31 02:47:58;;;;;;;0.95;0.10;;;;;;;;;;5071641;28;20024;-75
2023/10/31 02:50:24;;;;;;;0.20;0.10;;;;;;;;;;5071810;28;20017;-75
2023/10/31 02:52:50;;;;;;;0.10;0.10;;;;;;;;;;5051069;28;20108;-74
2023/10/31 02:55:16;;;;;;;0.10;0.10;;;;;;;;;;5068830;28;20024;-75
2023/10/31 02:57:42;;;;;;;0.10;0.10;;;;;;;;;;5075483;28;20017;-75
2023/10/31 03:00:09;;;;;;;0.00;0.00;;;;;;;;;;5058284;28;20048;-76
2023/10/31 03:02:35;;;;;;;0.10;0.10;;;;;;;;;;5076174;28;20032;-74
2023/10/31 03:05:02;;;;;;;0.00;0.00;;;;;;;;;;5076055;28;20379;-74
2023/10/31 03:07:28;;;;;;;0.10;0.03;;;;;;;;;;5076660;28;20028;-75
2023/10/31 03:09:54;;;;;;;0.20;0.20;;;;;;;;;;5081851;28;20021;-75
2023/10/31 03:12:20;;;;;;;0.38;0.10;;;;;;;;;;5083545;28;20024;-75
2023/10/31 03:14:46;;;;;;;0.10;0.10;;;;;;;;;;5073197;28;20035;-74
2023/10/31 03:17:12;;;;;;;0.35;0.10;;;;;;;;;;5074740;28;20101;-75
2023/10/31 03:19:38;;;;;;;0.00;0.00;;;;;;;;;;5056809;28;20047;-74
2023/10/31 03:22:06;;;;;;;0.32;0.05;;;;;;;;;;5070691;28;20032;-75
2023/10/31 03:24:32;;;;;;;0.10;0.10;;;;;;;;;;5054269;28;20113;-75
2023/10/31 03:26:58;;;;;;;0.00;0.00;;;;;;;;;;5073733;28;20035;-75
2023/10/31 03:29:24;;;;;;;0.10;0.10;;;;;;;;;;5075186;28;20395;-76
2023/10/31 03:31:50;;;;;;;0.00;0.00;;;;;;;;;;5074912;28;20021;-75
2023/10/31 03:34:16;;;;;;;0.93;0.30;;;;;;;;;;5067710;28;20033;-74
2023/10/31 03:36:42;;;;;;;0.03;0.03;;;;;;;;;;5073441;28;20100;-75
2023/10/31 03:39:09;;;;;;;0.10;0.10;;;;;;;;;;5073831;28;20020;-75
2023/10/31 03:41:35;;;;;;;0.43;0.05;;;;;;;;;;5091247;28;20016;-76
2023/10/31 03:44:01;;;;;;;0.32;0.10;;;;;;;;;;5074384;28;20040;-75
2023/10/31 03:46:27;;;;;;;0.63;0.10;;;;;;;;;;5085051;28;20016;-74
2023/10/31 03:48:53;;;;;;;0.10;0.00;;;;;;;;;;5097083;28;20108;-74
2023/10/31 03:51:19;;;;;;;0.20;0.03;;;;;;;;;;5091322;28;20128;-76
2023/10/31 03:53:45;;;;;;;2.08;0.10;;;;;;;;;;5067898;28;20036;-74
2023/10/31 03:56:11;;;;;;;0.10;0.10;;;;;;;;;;5075461;28;20020;-76
2023/10/31 03:58:39;;;;;;;3.55;0.00;;;;;;;;;;5076281;28;20028;-75
2023/10/31 04:01:05;;;;;;;0.10;0.10;;;;;;;;;;5076778;28;20074;-76
2023/10/31 04:03:31;;;;;;;0.00;0.00;;;;;;;;;;5074896;28;20016;-76
2023/10/31 04:05:57;;;;;;;0.30;0.20;;;;;;;;;;5092176;28;20042;-75
2023/10/31 04:08:23;;;;;;;0.75;0.13;;;;;;;;;;5095235;28;20011;-75
2023/10/31 04:10:49;;;;;;;0.00;0.00;;;;;;;;;;5095345;28;20054;-75
2023/10/31 04:13:15;;;;;;;0.10;0.10;;;;;;;;;;5076943;28;20476;-75
2023/10/31 04:15:41;;;;;;;0.10;0.05;;;;;;;;;;5073905;28;20021;-76
2023/10/31 04:18:07;;;;;;;0.10;0.10;;;;;;;;;;5074784;28;20023;-76
2023/10/31 04:20:33;;;;;;;0.00;0.00;;;;;;;;;;5075264;28;20082;-75
2023/10/31 04:22:59;;;;;;;0.10;0.00;;;;;;;;;;5074835;28;20032;-74
2023/10/31 04:25:26;;;;;;;0.10;0.10;;;;;;;;;;5068744;28;20048;-77
2023/10/31 04:27:53;;;;;;;0.10;0.05;;;;;;;;;;5079578;28;20145;-78
2023/10/31 04:30:19;;;;;;;0.10;0.10;;;;;;;;;;5083206;28;20038;-78
2023/10/31 04:32:45;;;;;;;0.13;0.13;;;;;;;;;;5078405;28;20043;-76
2023/10/31 04:35:11;;;;;;;0.95;0.28;;;;;;;;;;5054549;28;20032;-78
2023/10/31 04:37:37;;;;;;;0.10;0.10;;;;;;;;;;5073361;28;20082;-77
2023/10/31 04:40:04;;;;;;;0.10;0.10;;;;;;;;;;5081537;28;20047;-78
2023/10/31 04:42:33;;;;;;;0.35;0.20;;;;;;;;;;5072541;28;20763;-77
2023/10/31 04:44:59;;;;;;;0.25;0.10;;;;;;;;;;5071523;28;20110;-77
2023/10/31 04:47:25;;;;;;;0.20;0.20;;;;;;;;;;5072613;28;20028;-77
2023/10/31 04:49:51;;;;;;;0.22;0.17;;;;;;;;;;5056120;28;20433;-77
2023/10/31 04:52:19;;;;;;;0.20;0.10;;;;;;;;;;5074515;28;20020;-78
2023/10/31 04:54:45;;;;;;;0.10;0.10;;;;;;;;;;5074890;28;20021;-78
2023/10/31 04:57:11;;;;;;;0.47;0.13;;;;;;;;;;5073036;28;20082;-75
2023/10/31 04:59:37;;;;;;;0.20;0.20;;;;;;;;;;5072528;28;20472;-77
2023/10/31 05:02:03;;;;;;;0.20;0.20;;;;;;;;;;5072340;28;20020;-77
2023/10/31 05:04:30;;;;;;;0.15;0.10;;;;;;;;;;5072625;28;20017;-77
2023/10/31 05:06:56;;;;;;;0.47;0.10;;;;;;;;;;5072432;28;20434;-76
2023/10/31 05:09:23;;;;;;;0.10;0.10;;;;;;;;;;5081156;28;20020;-77
2023/10/31 05:11:49;;;;;;;0.10;0.10;;;;;;;;;;5077426;28;20036;-77
2023/10/31 05:14:15;;;;;;;0.20;0.20;;;;;;;;;;5076823;28;20040;-77
2023/10/31 05:16:42;;;;;;;0.43;0.40;;;;;;;;;;5072557;28;20029;-77
2023/10/31 05:19:08;;;;;;;0.10;0.10;;;;;;;;;;5071902;28;20051;-77
2023/10/31 05:21:34;;;;;;;0.20;0.20;;;;;;;;;;5078824;28;20098;-76
2023/10/31 05:24:01;;;;;;;0.30;0.30;;;;;;;;;;5048748;28;1157368;-77
2023/10/31 05:26:28;;;;;;;1.65;0.20;;;;;;;;;;5086546;28;20143;-77
2023/10/31 05:28:54;;;;;;;0.43;0.20;;;;;;;;;;5072140;28;20021;-76
2023/10/31 05:31:20;;;;;;;0.35;0.15;;;;;;;;;;5089558;28;20048;-76
2023/10/31 05:33:46;;;;;;;0.28;0.20;;;;;;;;;;5085465;28;20372;-76
2023/10/31 05:36:22;;;;;;;0.22;0.20;;;;;;;;;;5088882;28;20016;-76
2023/10/31 05:38:48;;;;;;;0.73;0.10;;;;;;;;;;5093846;28;20034;-76
2023/10/31 05:41:15;;;;;;;0.20;0.20;;;;;;;;;;5096006;28;20072;-77
2023/10/31 05:43:41;;;;;;;0.20;0.20;;;;;;;;;;5088881;28;20050;-77
2023/10/31 05:46:10;;;;;;;0.75;0.28;;;;;;;;;;5083425;28;20032;-76
2023/10/31 05:48:38;;;;;;;0.10;0.10;;;;;;;;;;5083305;28;20024;-77
2023/10/31 05:51:05;;;;;;;0.10;0.10;;;;;;;;;;5085720;28;20028;-77
2023/10/31 05:53:33;;;;;;;0.17;0.17;;;;;;;;;;5080918;28;20475;-76
2023/10/31 05:55:59;;;;;;;0.20;0.20;;;;;;;;;;5082663;28;20025;-77
2023/10/31 05:58:25;;;;;;;0.20;0.20;;;;;;;;;;5075539;28;20080;-77
2023/10/31 06:00:51;;;;;;;0.43;0.32;;;;;;;;;;5069418;28;20029;-76
2023/10/31 06:03:18;;;;;;;1.00;0.30;;;;;;;;;;5062052;28;20051;-77
2023/10/31 06:05:45;;;;;;;0.25;0.20;;;;;;;;;;5045195;28;20059;-77
2023/10/31 06:08:11;;;;;;;0.40;0.40;;;;;;;;;;5066640;28;20028;-77
2023/10/31 06:10:37;;;;;;;0.63;0.40;;;;;;;;;;5090999;28;20020;-76
2023/10/31 06:13:03;;;;;;;0.45;0.30;;;;;;;;;;5082754;28;20025;-77
2023/10/31 06:15:29;;;;;;;0.47;0.20;;;;;;;;;;5083364;28;20055;-77
2023/10/31 06:17:55;;;;;;;0.50;0.40;;;;;;;;;;5062452;28;20025;-77
2023/10/31 06:20:22;;;;;;;0.45;0.45;;;;;;;;;;5083106;28;20021;-77
2023/10/31 06:22:48;;;;;;;0.28;0.28;;;;;;;;;;5085345;28;20025;-77
2023/10/31 06:25:14;;;;;;;0.85;0.35;;;;;;;;;;5085300;28;20035;-78
2023/10/31 06:27:41;;;;;;;0.20;0.20;;;;;;;;;;5084194;28;20020;-77
2023/10/31 06:30:07;;;;;;;0.75;0.40;;;;;;;;;;5087127;28;20479;-78
2023/10/31 06:32:33;;;;;;;0.80;0.50;;;;;;;;;;5089335;28;20064;-76
2023/10/31 06:34:59;;;;;;;0.50;0.38;;;;;;;;;;5086893;28;20021;-76
2023/10/31 06:37:25;;;;;;;0.80;0.30;;;;;;;;;;5067817;28;20078;-76
2023/10/31 06:39:51;;;;;;;1.08;0.40;;;;;;;;;;5088795;28;20024;-77
2023/10/31 06:42:18;;;;;;;0.80;0.68;;;;;;;;;;5084615;28;20043;-79
2023/10/31 06:44:44;;;;;;;1.05;0.40;;;;;;;;;;5083449;28;20020;-77
2023/10/31 06:47:10;;;;;;;1.13;0.40;;;;;;;;;;5081839;28;20032;-77
2023/10/31 06:49:36;;;;;;;1.05;0.52;;;;;;;;;;5072252;28;20717;-77
2023/10/31 06:52:03;;;;;;;1.23;0.47;;;;;;;;;;5061580;28;20523;-78
2023/10/31 06:54:30;;;;;;;0.55;0.32;;;;;;;;;;5062482;28;20074;-76
2023/10/31 06:56:56;;;;;;;0.75;0.30;;;;;;;;;;5062553;28;20484;-77
2023/10/31 06:59:22;;;;;;;1.20;0.40;;;;;;;;;;5050964;28;20074;-76
2023/10/31 07:01:48;;;;;;;0.68;0.40;;;;;;;;;;5085506;28;20036;-77
2023/10/31 07:04:16;;;;;;;0.93;0.35;;;;;;;;;;5084597;28;20062;-77
2023/10/31 07:06:42;;;;;;;0.80;0.50;;;;;;;;;;5083179;28;20021;-76
2023/10/31 07:09:09;;;;;;;0.40;0.32;;;;;;;;;;5084201;28;20044;-77
2023/10/31 07:11:35;;;;;;;2.15;0.50;;;;;;;;;;5084951;28;20025;-77
2023/10/31 07:14:02;;;;;;;0.32;0.32;;;;;;;;;;5083826;28;20036;-77
2023/10/31 07:16:29;;;;;;;0.47;0.30;;;;;;;;;;5084226;28;20090;-76
2023/10/31 07:18:55;;;;;;;0.50;0.50;;;;;;;;;;5085403;28;20021;-77
2023/10/31 07:21:21;;;;;;;0.80;0.38;;;;;;;;;;5086546;28;20035;-78
2023/10/31 07:23:47;;;;;;;2.10;0.45;;;;;;;;;;5086819;28;20040;-77
2023/10/31 07:26:13;;;;;;;1.13;0.40;;;;;;;;;;5086867;28;20032;-78
2023/10/31 07:28:39;;;;;;;0.95;0.40;;;;;;;;;;5086330;28;20074;-77
2023/10/31 07:31:05;;;;;;;0.25;0.25;;;;;;;;;;5087400;28;20056;-77
2023/10/31 07:33:32;;;;;;;0.70;0.50;;;;;;;;;;5068267;28;20047;-77
2023/10/31 07:35:58;;;;;;;1.67;0.45;;;;;;;;;;5085537;28;20025;-77
2023/10/31 07:38:24;;;;;;;0.50;0.40;;;;;;;;;;5085919;28;20020;-77
2023/10/31 07:40:50;;;;;;;0.70;0.40;;;;;;;;;;5084076;28;20055;-77
2023/10/31 07:43:16;;;;;;;1.63;0.43;;;;;;;;;;5059557;28;20578;-77
2023/10/31 07:45:42;;;;;;;2.53;0.60;;;;;;;;;;5043523;28;20116;-77
2023/10/31 07:48:09;;;;;;;0.95;0.40;;;;;;;;;;5061721;28;20368;-77
2023/10/31 07:50:35;;;;;;;0.75;0.47;;;;;;;;;;5062158;28;20091;-77
2023/10/31 07:53:01;;;;;;;0.40;0.40;;;;;;;;;;5062755;28;20025;-78
2023/10/31 07:55:27;;;;;;;1.23;0.50;;;;;;;;;;5087368;28;20021;-76
2023/10/31 07:57:54;;;;;;;0.57;0.32;;;;;;;;;;5093345;28;20008;-77
2023/10/31 08:00:20;;;;;;;0.98;0.45;;;;;;;;;;5079849;28;20020;-77
2023/10/31 08:02:46;;;;;;;1.00;0.52;;;;;;;;;;5078248;28;20162;-76
2023/10/31 08:05:12;;;;;;;0.73;0.50;;;;;;;;;;5079636;28;20031;-78
2023/10/31 08:07:39;;;;;;;2.25;0.50;;;;;;;;;;5078247;28;20024;-77
2023/10/31 08:10:05;;;;;;;1.00;0.40;;;;;;;;;;5077500;28;20027;-77
2023/10/31 08:12:31;;;;;;;1.55;0.85;;;;;;;;;;5078187;28;20489;-78
2023/10/31 08:14:58;;;;;;;0.63;0.60;;;;;;;;;;5083308;28;20024;-77
2023/10/31 08:17:24;;;;;;;0.93;0.50;;;;;;;;;;5085073;28;20032;-77
2023/10/31 08:19:50;;;;;;;1.77;0.50;;;;;;;;;;5083600;28;20046;-77
2023/10/31 08:22:17;;;;;;;0.60;0.30;;;;;;;;;;5083008;28;20031;-78
2023/10/31 08:24:43;;;;;;;0.63;0.45;;;;;;;;;;5091322;28;20020;-76
2023/10/31 08:27:11;;;;;;;0.95;0.38;;;;;;;;;;5096972;28;20498;-79
2023/10/31 08:29:37;;;;;;;1.02;0.30;;;;;;;;;;5077545;28;20035;-77
2023/10/31 08:32:03;;;;;;;4.97;0.60;;;;;;;;;;5078282;28;20024;-75
2023/10/31 08:34:29;;;;;;;1.90;0.57;;;;;;;;;;5096061;28;20068;-76
2023/10/31 08:36:57;;;;;;;1.35;0.50;;;;;;;;;;5096122;28;20076;-76
2023/10/31 08:39:23;;;;;;;1.08;0.98;;;;;;;;;;5092576;28;20036;-78
2023/10/31 08:41:56;;;;;;;0.93;0.52;;;;;;;;;;5098197;28;20387;-77
2023/10/31 08:44:22;;;;;;;0.47;0.43;;;;;;;;;;5062721;28;20120;-77
2023/10/31 08:46:48;;;;;;;0.80;0.65;;;;;;;;;;5038705;28;20035;-78
2023/10/31 08:49:15;;;;;;;0.65;0.52;;;;;;;;;;5055779;28;20050;-78
2023/10/31 08:51:41;;;;;;;1.60;0.40;;;;;;;;;;5055438;28;20318;-77
2023/10/31 08:54:08;;;;;;;1.52;0.70;;;;;;;;;;5055604;28;20032;-77
2023/10/31 08:56:35;;;;;;;2.05;0.70;;;;;;;;;;5056379;28;20052;-78
2023/10/31 08:59:01;;;;;;;2.80;0.65;;;;;;;;;;5050143;28;20327;-77
2023/10/31 09:01:28;;;;;;;1.55;0.68;;;;;;;;;;5077037;28;20044;-77
2023/10/31 09:03:55;;;;;;;1.42;0.60;;;;;;;;;;5085750;28;20043;-77
2023/10/31 09:06:21;;;;;;;1.33;0.88;;;;;;;;;;5085151;28;20528;-77
2023/10/31 09:08:47;;;;;;;1.83;0.70;;;;;;;;;;5076463;28;20415;-77
2023/10/31 09:11:13;;;;;;;5.07;0.88;;;;;;;;;;5092466;28;20026;-78
2023/10/31 09:13:39;;;;;;;1.10;0.57;;;;;;;;;;5094800;28;20434;-77
2023/10/31 09:16:05;;;;;;;2.10;0.85;;;;;;;;;;5058306;28;20032;-77
2023/10/31 09:18:32;;;;;;;1.35;0.82;;;;;;;;;;5057110;28;20021;-77
2023/10/31 09:20:58;;;;;;;0.55;0.55;;;;;;;;;;5057008;28;20023;-77
2023/10/31 09:23:24;;;;;;;1.10;0.60;;;;;;;;;;5056583;28;20033;-78
2023/10/31 09:25:50;;;;;;;1.35;0.68;;;;;;;;;;5056095;28;20036;-76
2023/10/31 09:28:16;;;;;;;2.63;0.80;;;;;;;;;;5074927;28;20036;-77
2023/10/31 09:30:42;;;;;;;1.60;0.60;;;;;;;;;;5074732;28;20367;-77
2023/10/31 09:33:08;;;;;;;2.30;0.85;;;;;;;;;;5074449;28;20039;-77
2023/10/31 09:35:34;;;;;;;3.38;0.70;;;;;;;;;;5061830;28;20166;-77
2023/10/31 09:38:01;;;;;;;2.97;1.45;;;;;;;;;;5038670;28;20021;-76
2023/10/31 09:40:27;;;;;;;1.48;0.75;;;;;;;;;;5085439;28;20031;-77
2023/10/31 09:42:53;;;;;;;5.80;1.10;;;;;;;;;;5096440;28;20100;-76
2023/10/31 09:45:19;;;;;;;0.90;0.70;;;;;;;;;;5087447;28;20454;-77
2023/10/31 09:47:45;;;;;;;2.67;0.93;;;;;;;;;;5076922;28;20094;-78
2023/10/31 09:50:11;;;;;;;0.98;0.60;;;;;;;;;;5057010;28;20024;-77
2023/10/31 09:52:37;;;;;;;0.85;0.60;;;;;;;;;;5075201;28;20424;-77
2023/10/31 09:55:05;;;;;;;3.70;1.00;;;;;;;;;;5072078;28;20025;-78
2023/10/31 09:57:31;;;;;;;0.73;0.55;;;;;;;;;;5053758;28;20013;-77
2023/10/31 09:59:57;;;;;;;2.47;0.60;;;;;;;;;;5056457;28;20040;-79
2023/10/31 10:02:23;;;;;;;1.55;0.95;;;;;;;;;;5073403;28;20025;-78
2023/10/31 10:04:50;;;;;;;3.75;0.85;;;;;;;;;;5060111;28;20025;-78
2023/10/31 10:07:16;;;;;;;2.05;0.80;;;;;;;;;;5056215;28;20695;-78
2023/10/31 10:09:46;;;;;;;1.75;0.75;;;;;;;;;;5071399;28;20052;-79
2023/10/31 10:12:13;;;;;;;3.70;0.70;;;;;;;;;;5077507;28;20029;-77
2023/10/31 10:14:39;;;;;;;1.75;0.68;;;;;;;;;;5074594;28;20036;-77
2023/10/31 10:17:16;;;;;;;2.35;1.00;;;;;;;;;;5075162;28;20024;-77
2023/10/31 10:19:42;;;;;;;1.65;0.80;;;;;;;;;;5077486;28;20029;-77
2023/10/31 10:22:09;;;;;;;3.08;0.90;;;;;;;;;;5064172;28;20436;-76
2023/10/31 10:24:36;;;;;;;0.90;0.80;;;;;;;;;;5083047;28;20043;-78
2023/10/31 10:27:02;;;;;;;1.38;0.70;;;;;;;;;;5066157;28;20020;-77
2023/10/31 10:29:28;;;;;;;2.67;0.63;;;;;;;;;;5074060;28;20028;-77
2023/10/31 10:31:54;;;;;;;0.50;0.50;;;;;;;;;;5047486;28;20028;-78
2023/10/31 10:34:20;;;;;;;1.02;0.50;;;;;;;;;;5059634;28;20025;-78
2023/10/31 10:36:49;;;;;;;0.95;0.70;;;;;;;;;;5069885;28;20024;-77
2023/10/31 10:39:19;;;;;;;0.68;0.52;;;;;;;;;;5047350;28;20017;-79
2023/10/31 10:41:48;;;;;;;0.50;0.40;;;;;;;;;;5086274;28;20012;-78
2023/10/31 10:44:15;;;;;;;1.23;0.40;;;;;;;;;;5076004;28;20077;-77
2023/10/31 10:46:43;;;;;;;1.42;0.50;;;;;;;;;;5073687;28;20114;-78
2023/10/31 10:49:10;;;;;;;1.50;0.60;;;;;;;;;;5060251;28;20035;-78
2023/10/31 10:51:48;;;;;;;1.15;0.55;;;;;;;;;;5061530;28;20040;-77
2023/10/31 10:54:32;;;;;;;0.90;0.68;;;;;;;;;;5071209;28;20036;-77
2023/10/31 10:57:10;;;;;;;3.30;0.95;;;;;;;;;;5104395;28;20031;-77
2023/10/31 10:59:43;;;;;;;1.42;0.70;;;;;;;;;;5075814;28;20021;-77
2023/10/31 11:02:10;;;;;;;2.50;0.80;;;;;;;;;;5054413;28;20479;-77
2023/10/31 11:04:36;;;;;;;1.60;0.60;;;;;;;;;;5076355;28;20035;-78
2023/10/31 11:07:03;;;;;;;2.13;0.80;;;;;;;;;;5077148;28;20036;-78
2023/10/31 11:09:33;;;;;;;2.40;0.75;;;;;;;;;;5059172;28;20017;-78
2023/10/31 11:11:59;;;;;;;1.67;0.60;;;;;;;;;;5079006;28;20060;-78
2023/10/31 11:14:26;;;;;;;1.27;0.75;;;;;;;;;;5063670;28;20020;-78
2023/10/31 11:16:53;;;;;;;1.88;0.60;;;;;;;;;;5065074;28;20016;-78
2023/10/31 11:19:20;;;;;;;1.23;0.70;;;;;;;;;;5074610;28;20021;-78
2023/10/31 11:22:16;;;;;;;1.92;0.77;;;;;;;;;;5071401;28;20013;-77
2023/10/31 11:24:42;;;;;;;0.95;0.52;;;;;;;;;;5057028;28;20503;-78
2023/10/31 11:27:08;;;;;;;0.95;0.88;;;;;;;;;;5066470;28;20020;-78
2023/10/31 11:29:35;;;;;;;1.30;1.10;;;;;;;;;;5068599;28;20089;-77
2023/10/31 11:32:01;;;;;;;3.72;0.85;;;;;;;;;;5068210;28;20056;-78
2023/10/31 11:34:28;;;;;;;1.67;0.90;;;;;;;;;;5067797;28;20432;-77
2023/10/31 11:37:14;;;;;;;1.02;0.57;;;;;;;;;;5069144;28;20024;-77
2023/10/31 11:39:40;;;;;;;0.75;0.60;;;;;;;;;;5073362;28;20052;-78
2023/10/31 11:42:18;;;;;;;1.25;0.75;;;;;;;;;;5101584;28;20035;-78
2023/10/31 11:44:56;;;;;;;2.30;0.70;;;;;;;;;;5107141;28;20032;-78
2023/10/31 11:47:23;;;;;;;2.25;0.80;;;;;;;;;;5108935;28;20024;-77
2023/10/31 11:49:49;;;;;;;1.55;0.68;;;;;;;;;;5097795;28;20020;-77
2023/10/31 11:52:19;;;;;;;2.13;0.98;;;;;;;;;;5058173;28;20112;-77
2023/10/31 11:54:45;;;;;;;3.05;1.10;;;;;;;;;;5087260;28;20025;-77
2023/10/31 11:57:11;;;;;;;2.20;1.00;;;;;;;;;;5089557;28;20025;-78
2023/10/31 11:59:38;;;;;;;1.33;0.93;;;;;;;;;;5083727;28;20025;-78
2023/10/31 12:02:18;;;;;;;1.45;0.90;;;;;;;;;;5068867;28;20029;-77
2023/10/31 12:04:44;;;;;;;1.90;1.05;;;;;;;;;;5068650;28;20535;-77
2023/10/31 12:07:10;;;;;;;1.38;0.70;;;;;;;;;;5070991;28;20032;-78
2023/10/31 12:09:46;;;;;;;2.97;0.95;;;;;;;;;;5080543;28;20024;-77
2023/10/31 12:12:13;;;;;;;3.28;0.88;;;;;;;;;;5082369;28;20020;-76
2023/10/31 12:14:39;;;;;;;1.58;0.70;;;;;;;;;;5102117;28;20027;-78
2023/10/31 12:17:06;;;;;;;3.28;1.10;;;;;;;;;;5102207;28;20016;-77
2023/10/31 12:19:33;;;;;;;1.60;0.93;;;;;;;;;;5104925;28;20020;-77
2023/10/31 12:21:59;;;;;;;2.33;0.57;;;;;;;;;;5089720;28;20029;-77
2023/10/31 12:24:25;;;;;;;2.58;1.13;;;;;;;;;;5089467;28;20365;-78
2023/10/31 12:26:51;;;;;;;2.22;0.93;;;;;;;;;;5087859;28;20025;-77
2023/10/31 12:29:18;;;;;;;1.40;0.63;;;;;;;;;;5085298;28;20076;-77
2023/10/31 12:31:47;;;;;;;1.30;0.90;;;;;;;;;;5095428;28;20055;-77
2023/10/31 12:34:17;;;;;;;3.65;0.75;;;;;;;;;;5094649;28;20021;-77
2023/10/31 12:36:44;;;;;;;1.95;0.68;;;;;;;;;;5074067;28;20098;-75
2023/10/31 12:39:12;;;;;;;1.95;0.70;;;;;;;;;;5090378;28;20031;-76
2023/10/31 12:41:38;;;;;;;4.30;0.85;;;;;;;;;;5075577;28;20032;-78
2023/10/31 12:44:15;;;;;;;2.88;0.70;;;;;;;;;;5068020;28;20025;-77
2023/10/31 12:46:42;;;;;;;3.38;0.98;;;;;;;;;;5060558;28;20082;-77
2023/10/31 12:49:17;;;;;;;6.25;0.95;;;;;;;;;;5105390;28;20489;-77
2023/10/31 12:52:00;;;;;;;0.60;0.38;;;;;;;;;;5087757;28;20028;-78
2023/10/31 12:54:26;;;;;;;;;;;;;;;;;;5063408;28;20033;-78
2023/10/31 12:56:52;;;;;;;1.63;0.50;;;;;;;;;;5062270;28;19915;-77
2023/10/31 12:59:19;;;;;;;0.50;0.50;;;;;;;;;;5063814;28;20040;-77
2023/10/31 13:01:45;;;;;;;1.05;0.60;;;;;;;;;;5067528;28;20468;-78
2023/10/31 13:04:11;;;;;;;1.35;0.70;;;;;;;;;;5062800;28;20075;-77
2023/10/31 13:06:38;;;;;;;0.50;0.40;;;;;;;;;;5059232;28;20447;-78
2023/10/31 13:09:11;;;;;;;1.38;0.60;;;;;;;;;;5064938;28;20410;-77
2023/10/31 13:11:40;;;;;;;1.17;0.50;;;;;;;;;;5075672;28;20028;-77
2023/10/31 13:14:06;;;;;;;0.57;0.43;;;;;;;;;;5079278;28;20054;-77
2023/10/31 13:16:33;;;;;;;1.95;0.50;;;;;;;;;;5081261;28;20076;-77
2023/10/31 13:18:59;;;;;;;0.43;0.43;;;;;;;;;;5082509;28;20012;-77
2023/10/31 13:21:26;;;;;;;1.92;0.82;;;;;;;;;;5072969;28;20188;-76
2023/10/31 13:23:52;;;;;;;1.85;0.85;;;;;;;;;;5074900;28;20039;-77
2023/10/31 13:26:18;;;;;;;0.68;0.68;;;;;;;;;;5061642;28;20033;-76
2023/10/31 13:28:44;;;;;;;1.15;0.50;;;;;;;;;;5063463;28;20029;-77
2023/10/31 13:31:11;;;;;;;0.85;0.60;;;;;;;;;;5063241;28;20025;-77
2023/10/31 13:33:37;;;;;;;0.98;0.50;;;;;;;;;;5074939;28;20051;-77
2023/10/31 13:36:04;;;;;;;0.40;0.38;;;;;;;;;;5076537;28;20024;-76
2023/10/31 13:38:30;;;;;;;0.43;0.30;;;;;;;;;;5060612;28;20021;-75
2023/10/31 13:40:56;;;;;;;0.40;0.40;;;;;;;;;;5076045;28;20039;-77
2023/10/31 13:43:22;;;;;;;0.30;0.30;;;;;;;;;;5076188;28;20069;-77
2023/10/31 13:45:48;;;;;;;0.45;0.40;;;;;;;;;;5076755;28;20019;-74
2023/10/31 13:48:14;;;;;;;0.43;0.32;;;;;;;;;;5077053;28;20027;-76
2023/10/31 13:50:41;;;;;;;1.60;0.40;;;;;;;;;;5076839;28;20031;-75
2023/10/31 13:53:07;;;;;;;0.73;0.40;;;;;;;;;;5057117;28;20437;-77
2023/10/31 13:55:33;;;;;;;0.73;0.40;;;;;;;;;;5045732;28;20021;-77
2023/10/31 13:58:00;;;;;;;1.20;0.60;;;;;;;;;;5066760;28;20029;-76
2023/10/31 14:00:26;;;;;;;0.70;0.70;;;;;;;;;;5045330;28;20021;-77
2023/10/31 14:02:52;;;;;;;0.50;0.50;;;;;;;;;;5061231;28;20028;-76
2023/10/31 14:05:18;;;;;;;0.70;0.47;;;;;;;;;;5082655;28;20024;-76
2023/10/31 14:07:44;;;;;;;0.95;0.40;;;;;;;;;;5080296;28;20149;-77
2023/10/31 14:10:10;;;;;;;3.65;0.60;;;;;;;;;;5086727;28;20021;-76
2023/10/31 14:12:36;;;;;;;1.27;0.30;;;;;;;;;;5086488;28;20077;-78
2023/10/31 14:15:03;;;;;;;0.73;0.55;;;;;;;;;;5083032;28;20031;-77
2023/10/31 14:17:29;;;;;;;0.40;0.40;;;;;;;;;;5083672;28;20033;-76
2023/10/31 14:19:55;;;;;;;1.23;0.47;;;;;;;;;;5081316;28;20036;-76
2023/10/31 14:22:22;;;;;;;0.65;0.55;;;;;;;;;;5084748;28;20430;-77
2023/10/31 14:24:49;;;;;;;0.77;0.50;;;;;;;;;;5055113;28;20090;-77
2023/10/31 14:27:15;;;;;;;0.60;0.40;;;;;;;;;;5067804;28;20447;-77
2023/10/31 14:29:41;;;;;;;2.00;0.50;;;;;;;;;;5068243;28;20044;-77
2023/10/31 14:32:10;;;;;;;0.38;0.35;;;;;;;;;;5062147;28;20025;-76
2023/10/31 14:34:36;;;;;;;0.38;0.38;;;;;;;;;;5065760;28;20025;-77
2023/10/31 14:37:02;;;;;;;0.95;0.55;;;;;;;;;;5061414;28;20025;-77
2023/10/31 14:39:29;;;;;;;1.05;0.40;;;;;;;;;;5080582;28;20023;-77
2023/10/31 14:41:55;;;;;;;0.70;0.43;;;;;;;;;;5080388;28;20063;-77